< < Back
Terminal Aerodrome Forecast


Current Version              Previous Versions:   1  2  3  4  5  6  7  8  9  

Terminal Aerodrome Forecast

501
FTUS42 KTAE 010500
TAFABY
TAF
KABY 010520Z 0106/0206 21005KT P6SM SCT050
      TEMPO 0111/0113 00000KT 3SM BR SCT002=



Latest METAR

233
SAUS70 KWBC 020800
MTRABY
METAR KABY 020753Z 27003KT 10SM CLR 23/22 A3004 RMK AO2 SLP169 T02280222
PNO $


USA.gov is the U.S. government's official web portal to all federal, state and local government web resources and services.